KPSC/PSC METAR and TAF weather

Enter ICAO airport designator
Station Type Date Time Source
KPSC METAR 2019/10/21 01:53 UTC NOAA

KPSC 210153Z 18008KT 10SM FEW050 13/04 A2995 RMK AO2 SLP144 T01280039 $


Station Type Date Time Source
KPSC Decoded METAR 2019/10/21 01:53 UTC NOAA

TRI-CITIES AIRPORT, WA, United States (KPSC) 46-16N 119-07W 121M
Oct 20, 2019 - 09:53 PM EDT / 2019.10.21 0153 UTC
Wind: from the S (180 degrees) at 9 MPH (8 KT):0
Visibility: 10 mile(s):0
Sky conditions: mostly clear
Temperature: 55.0 F (12.8 C)
Dew Point: 39.0 F (3.9 C)
Relative Humidity: 54%
Pressure (altimeter): 29.95 in. Hg (1014 hPa)
ob: KPSC 210153Z 18008KT 10SM FEW050 13/04 A2995 RMK AO2 SLP144 T01280039
cycle: 2

Station Type Date Time Source
KPSC TAF 2019/10/20 18:28 UTC NOAA

TAF KPSC 201726Z 2018/2118 21007KT P6SM VCSH SCT040 BKN050
FM202000 21009KT P6SM -RA SCT030 BKN040 OVC050
FM210200 23010KT P6SM SCT060 BKN150 OVC200
FM211500 23010KT P6SM SCT070 BKN090 OVC110

Example: see airport list